Time;durP1;ratioP1;P1;durP2;ratioP2;P2;SDS_P1;SDS_P2;PMS_P1;PMS_P2;Temp;Humidity;BMP_temperature;BMP_pressure;BME280_temperature;BME280_humidity;BME280_pressure;Samples;Min_cycle;Max_cycle;Signal;HPM_P1;HPM_P2
2022/12/03 00:01:35;;;;;;;29.55;10.93;;;;;;;;;;10422448;28;20214;-77
2022/12/03 00:06:36;;;;;;;28.90;9.93;;;;;;;;;;10410709;28;20214;-77
2022/12/03 00:11:37;;;;;;;29.80;9.80;;;;;;;;;;10421002;28;20575;-77
2022/12/03 00:16:38;;;;;;;34.25;10.88;;;;;;;;;;10412825;28;20222;-76
2022/12/03 00:21:39;;;;;;;41.55;10.82;;;;;;;;;;10423191;28;20215;-77
2022/12/03 00:26:40;;;;;;;35.67;11.77;;;;;;;;;;10389646;28;20211;-77
2022/12/03 00:31:42;;;;;;;22.40;9.13;;;;;;;;;;10388771;28;20231;-76
2022/12/03 00:36:43;;;;;;;28.70;9.93;;;;;;;;;;10395751;28;20224;-77
2022/12/03 00:41:44;;;;;;;34.80;10.10;;;;;;;;;;10381762;28;20312;-77
2022/12/03 00:46:45;;;;;;;32.27;8.73;;;;;;;;;;10387136;28;20241;-77
2022/12/03 00:51:46;;;;;;;20.87;9.20;;;;;;;;;;10382733;28;21062;-77
2022/12/03 00:56:47;;;;;;;24.97;8.60;;;;;;;;;;10385051;28;20302;-78
2022/12/03 01:01:49;;;;;;;27.77;8.25;;;;;;;;;;10399091;28;20225;-77
2022/12/03 01:06:50;;;;;;;22.70;8.70;;;;;;;;;;10379472;28;20247;-78
2022/12/03 01:11:51;;;;;;;25.63;8.80;;;;;;;;;;10381485;28;20274;-78
2022/12/03 01:16:52;;;;;;;19.37;6.40;;;;;;;;;;10381406;28;21004;-77
2022/12/03 01:21:54;;;;;;;18.08;6.28;;;;;;;;;;10379786;28;20269;-78
2022/12/03 01:26:56;;;;;;;14.33;6.43;;;;;;;;;;10377675;28;20211;-78
2022/12/03 01:32:16;;;;;;;17.43;7.40;;;;;;;;;;10382871;28;20244;-77
2022/12/03 01:37:17;;;;;;;17.67;6.90;;;;;;;;;;10416384;28;20222;-77
2022/12/03 01:42:23;;;;;;;14.73;6.70;;;;;;;;;;10420748;28;20721;-78
2022/12/03 01:47:25;;;;;;;15.83;7.37;;;;;;;;;;10422557;28;20227;-77
2022/12/03 01:52:28;;;;;;;13.73;6.30;;;;;;;;;;10401543;28;20215;-77
2022/12/03 01:57:30;;;;;;;14.73;6.10;;;;;;;;;;10420227;28;20682;-78
2022/12/03 02:02:32;;;;;;;21.50;7.33;;;;;;;;;;10421516;28;20325;-78
2022/12/03 02:07:33;;;;;;;14.77;7.37;;;;;;;;;;10403795;28;21492;-77
2022/12/03 02:12:38;;;;;;;20.17;6.47;;;;;;;;;;10409787;28;20239;-79
2022/12/03 02:17:39;;;;;;;19.73;6.67;;;;;;;;;;10411976;28;20750;-77
2022/12/03 02:22:49;;;;;;;13.63;5.20;;;;;;;;;;10414697;28;20238;-79
2022/12/03 02:27:52;;;;;;;18.13;7.20;;;;;;;;;;10429212;28;20218;-77
2022/12/03 02:32:54;;;;;;;13.80;6.07;;;;;;;;;;10413181;28;20234;-79
2022/12/03 02:37:58;;;;;;;16.67;7.33;;;;;;;;;;10423335;28;20221;-78
2022/12/03 02:43:00;;;;;;;15.77;7.40;;;;;;;;;;10435533;28;20222;-78
2022/12/03 02:48:07;;;;;;;11.37;5.80;;;;;;;;;;10441319;28;20219;-78
2022/12/03 02:53:11;;;;;;;15.73;6.90;;;;;;;;;;10431327;28;20265;-78
2022/12/03 02:58:12;;;;;;;12.57;6.60;;;;;;;;;;10433897;28;20288;-79
2022/12/03 03:03:14;;;;;;;23.07;8.17;;;;;;;;;;10426123;28;20768;-79
2022/12/03 03:08:16;;;;;;;19.37;7.30;;;;;;;;;;10398141;28;20223;-78
2022/12/03 03:13:18;;;;;;;12.30;6.43;;;;;;;;;;10414787;28;20218;-79
2022/12/03 03:18:19;;;;;;;20.20;7.90;;;;;;;;;;10429006;28;20292;-78
2022/12/03 03:23:21;;;;;;;18.37;7.53;;;;;;;;;;10430264;28;20251;-78
2022/12/03 03:28:23;;;;;;;25.47;7.97;;;;;;;;;;10412159;28;20219;-79
2022/12/03 03:33:24;;;;;;;22.10;6.93;;;;;;;;;;10425979;28;20231;-79
2022/12/03 03:38:26;;;;;;;21.65;7.75;;;;;;;;;;10411984;28;20282;-79
2022/12/03 03:43:28;;;;;;;19.67;7.07;;;;;;;;;;10419161;28;20227;-79
2022/12/03 03:48:29;;;;;;;14.20;5.77;;;;;;;;;;10414992;28;20761;-78
2022/12/03 03:53:30;;;;;;;14.40;6.80;;;;;;;;;;10427084;28;20212;-78
2022/12/03 03:58:31;;;;;;;17.47;6.53;;;;;;;;;;10421318;28;20223;-79
2022/12/03 04:03:33;;;;;;;27.57;6.77;;;;;;;;;;10401931;28;20602;-78
2022/12/03 04:08:34;;;;;;;20.73;8.60;;;;;;;;;;10417161;28;20298;-78
2022/12/03 04:13:35;;;;;;;17.37;7.07;;;;;;;;;;10416356;28;20311;-78
2022/12/03 04:18:42;;;;;;;21.33;9.33;;;;;;;;;;10409198;28;20229;-78
2022/12/03 04:23:43;;;;;;;23.77;8.70;;;;;;;;;;10429746;28;20219;-78
2022/12/03 04:28:47;;;;;;;26.03;9.00;;;;;;;;;;10398724;28;20235;-78
2022/12/03 04:39:08;;;;;;;30.03;11.03;;;;;;;;;;10400815;28;20284;-78
2022/12/03 04:49:29;;;;;;;34.90;11.18;;;;;;;;;;10417616;28;20283;-78
2022/12/03 04:54:31;;;;;;;27.02;10.52;;;;;;;;;;10392058;28;20325;-78
2022/12/03 04:59:32;;;;;;;38.83;10.97;;;;;;;;;;10403187;28;21312;-78
2022/12/03 05:04:33;;;;;;;35.53;11.77;;;;;;;;;;10404808;28;20572;-77
2022/12/03 05:09:34;;;;;;;32.53;12.73;;;;;;;;;;10416975;28;20764;-78
2022/12/03 05:14:35;;;;;;;33.80;12.10;;;;;;;;;;10410020;28;20207;-78
2022/12/03 05:24:56;;;;;;;39.17;14.13;;;;;;;;;;10420136;28;20272;-79
2022/12/03 05:29:57;;;;;;;40.57;14.73;;;;;;;;;;10408368;28;21173;-79
2022/12/03 05:34:58;;;;;;;39.43;15.60;;;;;;;;;;10416397;28;20320;-78
2022/12/03 05:40:15;;;;;;;47.60;14.17;;;;;;;;;;10376594;28;20877;-78
2022/12/03 05:45:17;;;;;;;33.33;13.60;;;;;;;;;;10397068;28;20371;-78
2022/12/03 05:50:19;;;;;;;40.58;14.35;;;;;;;;;;10394957;28;20211;-78
2022/12/03 05:55:20;;;;;;;44.80;14.23;;;;;;;;;;10415120;28;20175;-78
2022/12/03 06:00:26;;;;;;;44.83;13.30;;;;;;;;;;10396490;28;20272;-78
2022/12/03 06:05:27;;;;;;;33.93;14.40;;;;;;;;;;10409461;28;20225;-78
2022/12/03 06:10:29;;;;;;;42.43;14.47;;;;;;;;;;10430377;28;20911;-79
2022/12/03 06:15:30;;;;;;;36.90;13.67;;;;;;;;;;10389930;28;20210;-78
2022/12/03 06:20:31;;;;;;;43.43;15.20;;;;;;;;;;10406767;28;20222;-79
2022/12/03 06:25:32;;;;;;;48.13;13.80;;;;;;;;;;10385108;28;20211;-78
2022/12/03 06:30:34;;;;;;;32.13;13.00;;;;;;;;;;10387250;28;20206;-78
2022/12/03 06:35:35;;;;;;;29.60;10.73;;;;;;;;;;10410363;28;20237;-80
2022/12/03 06:40:37;;;;;;;46.93;14.80;;;;;;;;;;10389936;28;20254;-84
2022/12/03 06:45:38;;;;;;;31.87;12.20;;;;;;;;;;10401478;28;20274;-83
2022/12/03 06:50:39;;;;;;;33.23;12.90;;;;;;;;;;10407710;28;20211;-83
2022/12/03 06:55:40;;;;;;;37.60;13.77;;;;;;;;;;10415952;28;20206;-81
2022/12/03 07:00:41;;;;;;;29.20;12.87;;;;;;;;;;10424000;28;20235;-86
2022/12/03 07:05:42;;;;;;;32.90;13.43;;;;;;;;;;10417590;28;20291;-83
2022/12/03 07:10:43;;;;;;;36.15;13.85;;;;;;;;;;10408703;28;20221;-81
2022/12/03 07:15:44;;;;;;;34.30;13.20;;;;;;;;;;10400941;28;20207;-84
2022/12/03 07:20:45;;;;;;;37.43;14.37;;;;;;;;;;10424697;28;20305;-84
2022/12/03 07:25:46;;;;;;;42.23;15.20;;;;;;;;;;10415379;28;20211;-83
2022/12/03 07:30:47;;;;;;;32.30;14.75;;;;;;;;;;10394943;28;20210;-84
2022/12/03 07:35:48;;;;;;;36.30;14.53;;;;;;;;;;10403282;28;20234;-83
2022/12/03 07:40:50;;;;;;;41.63;13.65;;;;;;;;;;10413757;28;20237;-85
2022/12/03 07:45:51;;;;;;;35.13;13.57;;;;;;;;;;10391178;28;20297;-84
2022/12/03 07:50:52;;;;;;;36.57;15.27;;;;;;;;;;10405886;28;20241;-81
2022/12/03 07:55:53;;;;;;;47.30;16.33;;;;;;;;;;10421585;28;20219;-80
2022/12/03 08:00:54;;;;;;;37.10;15.07;;;;;;;;;;10403367;28;20275;-81
2022/12/03 08:05:55;;;;;;;29.30;13.57;;;;;;;;;;10411513;28;20717;-80
2022/12/03 08:10:56;;;;;;;36.93;14.57;;;;;;;;;;10427289;28;20210;-81
2022/12/03 08:16:00;;;;;;;36.83;15.43;;;;;;;;;;10416879;28;20214;-80
2022/12/03 08:21:01;;;;;;;44.23;16.80;;;;;;;;;;10422360;28;20225;-81
2022/12/03 08:26:06;;;;;;;40.63;14.73;;;;;;;;;;10427483;28;20286;-80
2022/12/03 08:31:07;;;;;;;40.97;15.00;;;;;;;;;;10418244;28;20219;-81
2022/12/03 08:36:08;;;;;;;37.50;15.00;;;;;;;;;;10401163;28;20227;-81
2022/12/03 08:41:14;;;;;;;38.40;16.80;;;;;;;;;;10426454;28;20235;-81
2022/12/03 08:46:18;;;;;;;44.78;16.52;;;;;;;;;;10425314;28;20223;-81
2022/12/03 08:51:24;;;;;;;41.60;16.27;;;;;;;;;;10409620;28;20315;-80
2022/12/03 08:56:26;;;;;;;43.40;16.67;;;;;;;;;;10408112;28;20199;-80
2022/12/03 09:01:30;;;;;;;40.38;16.52;;;;;;;;;;10416119;28;20223;-79
2022/12/03 09:06:31;;;;;;;38.42;15.88;;;;;;;;;;10421816;28;20227;-80
2022/12/03 09:11:32;;;;;;;38.33;16.23;;;;;;;;;;10413731;28;20697;-80
2022/12/03 09:16:33;;;;;;;39.60;15.95;;;;;;;;;;10422160;28;20214;-80
2022/12/03 09:21:34;;;;;;;40.53;16.13;;;;;;;;;;10406648;28;20218;-80
2022/12/03 09:26:35;;;;;;;51.53;17.13;;;;;;;;;;10436204;28;20226;-80
2022/12/03 09:31:37;;;;;;;38.33;15.17;;;;;;;;;;10414246;28;20357;-80
2022/12/03 09:36:38;;;;;;;44.70;17.20;;;;;;;;;;10397524;28;20250;-79
2022/12/03 09:41:39;;;;;;;49.30;18.00;;;;;;;;;;10403244;28;20235;-79
2022/12/03 09:46:41;;;;;;;41.73;17.93;;;;;;;;;;10404065;28;20288;-79
2022/12/03 09:51:43;;;;;;;39.40;16.70;;;;;;;;;;10417552;28;20790;-79
2022/12/03 09:56:46;;;;;;;35.58;15.63;;;;;;;;;;10420757;28;20208;-79
2022/12/03 10:01:47;;;;;;;42.67;17.13;;;;;;;;;;10419704;28;20218;-78
2022/12/03 10:06:48;;;;;;;41.53;16.17;;;;;;;;;;10421896;28;20297;-79
2022/12/03 10:11:49;;;;;;;37.45;16.60;;;;;;;;;;10400739;28;20639;-79
2022/12/03 10:16:50;;;;;;;34.83;15.43;;;;;;;;;;10400274;28;20214;-79
2022/12/03 10:21:51;;;;;;;35.15;16.45;;;;;;;;;;10399119;28;20226;-79
2022/12/03 10:26:53;;;;;;;48.72;17.00;;;;;;;;;;10396450;28;21466;-81
2022/12/03 10:31:59;;;;;;;41.45;16.63;;;;;;;;;;10403276;28;20594;-78
2022/12/03 10:37:14;;;;;;;38.80;15.50;;;;;;;;;;10417184;28;20222;-78
2022/12/03 10:42:15;;;;;;;35.55;14.95;;;;;;;;;;10402382;28;20230;-81
2022/12/03 10:47:17;;;;;;;44.07;15.40;;;;;;;;;;10400300;28;20214;-79
2022/12/03 10:52:21;;;;;;;43.07;15.83;;;;;;;;;;10411490;28;20214;-79
2022/12/03 10:57:22;;;;;;;40.00;16.77;;;;;;;;;;10427688;28;20211;-79
2022/12/03 11:02:24;;;;;;;43.72;15.90;;;;;;;;;;10431361;28;20523;-79
2022/12/03 11:07:25;;;;;;;38.67;15.02;;;;;;;;;;10384917;28;20615;-79
2022/12/03 11:12:28;;;;;;;50.67;16.98;;;;;;;;;;10391558;28;20230;-79
2022/12/03 11:17:39;;;;;;;41.13;17.10;;;;;;;;;;10408617;28;20242;-79
2022/12/03 11:22:42;;;;;;;39.42;16.75;;;;;;;;;;10408799;28;20211;-79
2022/12/03 11:27:43;;;;;;;39.65;16.42;;;;;;;;;;10423274;28;20307;-79
2022/12/03 11:32:44;;;;;;;41.53;16.23;;;;;;;;;;10406171;28;20227;-78
2022/12/03 11:37:46;;;;;;;40.47;15.75;;;;;;;;;;10407611;28;20211;-80
2022/12/03 11:42:47;;;;;;;41.10;16.10;;;;;;;;;;10426128;28;20227;-79
2022/12/03 11:47:57;;;;;;;36.15;15.80;;;;;;;;;;10392114;28;20218;-80
2022/12/03 11:53:00;;;;;;;37.13;14.93;;;;;;;;;;10400032;28;20218;-79
2022/12/03 11:58:03;;;;;;;40.00;14.95;;;;;;;;;;10402525;28;20692;-79
2022/12/03 12:03:04;;;;;;;48.22;16.85;;;;;;;;;;10409542;28;20230;-79
2022/12/03 12:08:05;;;;;;;23.98;12.57;;;;;;;;;;10420973;28;20917;-80
2022/12/03 12:13:06;;;;;;;38.08;14.60;;;;;;;;;;10417341;28;20210;-80
2022/12/03 12:18:33;;;;;;;34.15;14.82;;;;;;;;;;10462792;28;20223;-78
2022/12/03 12:23:34;;;;;;;32.13;14.55;;;;;;;;;;10436132;28;20223;-78
2022/12/03 12:28:35;;;;;;;30.85;14.02;;;;;;;;;;10423587;28;20218;-79
2022/12/03 12:33:37;;;;;;;36.67;15.93;;;;;;;;;;10387750;28;20281;-81
2022/12/03 12:38:38;;;;;;;34.33;15.18;;;;;;;;;;10422258;28;20211;-78
2022/12/03 12:43:39;;;;;;;37.10;15.77;;;;;;;;;;10400850;28;20230;-79
2022/12/03 12:48:40;;;;;;;37.50;14.90;;;;;;;;;;10420310;28;20226;-78
2022/12/03 12:53:42;;;;;;;32.80;14.60;;;;;;;;;;10424025;28;20215;-78
2022/12/03 12:58:43;;;;;;;32.55;14.52;;;;;;;;;;10393782;28;21918;-78
2022/12/03 13:03:44;;;;;;;34.63;16.25;;;;;;;;;;10404185;28;20987;-78
2022/12/03 13:08:46;;;;;;;29.85;14.38;;;;;;;;;;10389511;28;20725;-78
2022/12/03 13:13:47;;;;;;;34.20;14.63;;;;;;;;;;10386807;28;20236;-78
2022/12/03 13:18:49;;;;;;;34.75;15.45;;;;;;;;;;10389196;28;20687;-78
2022/12/03 13:23:52;;;;;;;29.38;14.70;;;;;;;;;;10404221;28;20245;-79
2022/12/03 13:28:56;;;;;;;32.22;12.18;;;;;;;;;;10392897;28;20218;-78
2022/12/03 13:33:57;;;;;;;37.67;15.50;;;;;;;;;;10403507;28;20235;-78
2022/12/03 13:38:58;;;;;;;37.60;15.52;;;;;;;;;;10398978;28;20663;-78
2022/12/03 13:44:00;;;;;;;38.50;14.27;;;;;;;;;;10386917;28;20302;-78
2022/12/03 13:49:01;;;;;;;38.83;15.60;;;;;;;;;;10410068;28;20220;-78
2022/12/03 13:54:02;;;;;;;32.33;15.15;;;;;;;;;;10421599;28;20267;-79
2022/12/03 13:59:03;;;;;;;39.03;15.38;;;;;;;;;;10422482;28;20905;-79
2022/12/03 14:04:04;;;;;;;32.63;14.75;;;;;;;;;;10425109;28;20816;-79
2022/12/03 14:09:05;;;;;;;36.80;15.25;;;;;;;;;;10422976;28;20265;-79
2022/12/03 14:14:06;;;;;;;37.03;14.32;;;;;;;;;;10421618;28;20683;-78
2022/12/03 14:19:08;;;;;;;38.15;14.00;;;;;;;;;;10427691;28;20210;-79
2022/12/03 14:24:09;;;;;;;35.67;14.27;;;;;;;;;;10423421;28;20235;-79
2022/12/03 14:29:10;;;;;;;31.73;13.10;;;;;;;;;;10426039;28;20491;-78
2022/12/03 14:34:11;;;;;;;32.50;13.33;;;;;;;;;;10405517;28;20227;-79
2022/12/03 14:39:12;;;;;;;37.30;13.77;;;;;;;;;;10351604;28;20306;-78
2022/12/03 14:44:13;;;;;;;36.53;15.23;;;;;;;;;;10347656;28;20231;-79
2022/12/03 14:49:15;;;;;;;35.23;13.70;;;;;;;;;;10371043;28;20220;-78
2022/12/03 14:54:16;;;;;;;37.27;14.10;;;;;;;;;;10366472;28;20365;-79
2022/12/03 14:59:17;;;;;;;32.80;13.82;;;;;;;;;;10375304;28;20215;-78
2022/12/03 15:04:18;;;;;;;36.55;13.57;;;;;;;;;;10387045;28;20240;-78
2022/12/03 15:09:20;;;;;;;30.47;12.57;;;;;;;;;;10350396;28;20218;-79
2022/12/03 15:14:21;;;;;;;37.47;14.47;;;;;;;;;;10367644;28;20238;-78
2022/12/03 15:19:22;;;;;;;33.92;14.35;;;;;;;;;;10387665;28;20234;-79
2022/12/03 15:24:23;;;;;;;45.10;14.60;;;;;;;;;;10374025;28;20318;-78
2022/12/03 15:29:25;;;;;;;46.50;14.67;;;;;;;;;;10373803;28;20215;-79
2022/12/03 15:34:27;;;;;;;49.50;17.23;;;;;;;;;;10389500;28;20253;-79
2022/12/03 15:39:28;;;;;;;34.17;13.53;;;;;;;;;;10429649;28;20678;-79
2022/12/03 15:44:29;;;;;;;33.87;14.00;;;;;;;;;;10401650;28;20419;-79
2022/12/03 15:49:30;;;;;;;47.87;15.53;;;;;;;;;;10431042;28;20953;-79
2022/12/03 15:54:31;;;;;;;38.10;14.30;;;;;;;;;;10406137;28;20215;-78
2022/12/03 15:59:32;;;;;;;39.05;14.05;;;;;;;;;;10422532;28;20967;-79
2022/12/03 16:04:33;;;;;;;36.97;13.57;;;;;;;;;;10429208;28;20273;-80
2022/12/03 16:09:34;;;;;;;40.55;13.93;;;;;;;;;;10418783;28;20207;-80
2022/12/03 16:14:35;;;;;;;42.22;14.02;;;;;;;;;;10440091;28;20210;-79
2022/12/03 16:19:37;;;;;;;37.47;14.60;;;;;;;;;;10424967;28;20210;-79
2022/12/03 16:24:38;;;;;;;43.67;14.30;;;;;;;;;;10404631;28;20229;-79
2022/12/03 16:29:39;;;;;;;39.77;14.23;;;;;;;;;;10401439;28;20648;-80
2022/12/03 16:34:40;;;;;;;38.33;13.43;;;;;;;;;;10428960;28;20230;-79
2022/12/03 16:39:41;;;;;;;44.85;14.55;;;;;;;;;;10406023;28;20214;-79
2022/12/03 16:50:04;;;;;;;38.10;13.40;;;;;;;;;;10420566;28;20249;-79
2022/12/03 16:55:05;;;;;;;33.40;13.10;;;;;;;;;;10419005;28;20326;-79
2022/12/03 17:00:06;;;;;;;45.23;16.17;;;;;;;;;;10416319;28;20213;-79
2022/12/03 17:05:08;;;;;;;36.47;14.47;;;;;;;;;;10424753;28;20322;-79
2022/12/03 17:10:09;;;;;;;44.10;15.07;;;;;;;;;;10419138;28;20218;-80
2022/12/03 17:15:10;;;;;;;44.93;14.37;;;;;;;;;;10375808;28;20216;-80
2022/12/03 17:20:13;;;;;;;45.80;15.15;;;;;;;;;;10408554;28;20249;-79
2022/12/03 17:25:14;;;;;;;39.17;14.97;;;;;;;;;;10425029;28;20224;-79
2022/12/03 17:30:15;;;;;;;40.20;15.97;;;;;;;;;;10418625;28;20951;-78
2022/12/03 17:35:17;;;;;;;37.70;13.60;;;;;;;;;;10422723;28;20211;-79
2022/12/03 17:40:18;;;;;;;47.43;15.90;;;;;;;;;;10422041;28;20210;-79
2022/12/03 17:45:19;;;;;;;38.37;14.90;;;;;;;;;;10416124;28;20179;-79
2022/12/03 17:50:20;;;;;;;37.47;13.40;;;;;;;;;;10418798;28;20297;-79
2022/12/03 17:55:21;;;;;;;42.07;13.87;;;;;;;;;;10418123;28;20183;-80
2022/12/03 18:00:22;;;;;;;41.23;14.97;;;;;;;;;;10358769;28;20290;-79
2022/12/03 18:05:24;;;;;;;36.90;13.90;;;;;;;;;;10414609;28;20238;-79
2022/12/03 18:10:25;;;;;;;44.67;13.23;;;;;;;;;;10403138;28;20219;-80
2022/12/03 18:15:26;;;;;;;51.70;15.20;;;;;;;;;;10408015;28;20210;-80
2022/12/03 18:20:28;;;;;;;40.13;15.43;;;;;;;;;;10418729;28;20276;-80
2022/12/03 18:25:29;;;;;;;36.37;14.73;;;;;;;;;;10421371;28;20210;-79
2022/12/03 18:30:30;;;;;;;39.00;13.97;;;;;;;;;;10417960;28;20223;-79
2022/12/03 18:35:31;;;;;;;44.90;13.83;;;;;;;;;;10405995;28;20796;-80
2022/12/03 18:40:32;;;;;;;46.50;15.30;;;;;;;;;;10360774;28;20226;-80
2022/12/03 18:45:33;;;;;;;36.50;14.67;;;;;;;;;;10388325;28;20223;-80
2022/12/03 18:50:34;;;;;;;50.83;15.67;;;;;;;;;;10419204;28;20312;-79
2022/12/03 18:55:35;;;;;;;47.50;14.52;;;;;;;;;;10412481;28;20227;-80
2022/12/03 19:00:37;;;;;;;53.00;15.17;;;;;;;;;;10416939;28;20209;-80
2022/12/03 19:05:38;;;;;;;41.23;14.70;;;;;;;;;;10416215;28;20225;-80
2022/12/03 19:10:39;;;;;;;38.80;13.93;;;;;;;;;;10430826;28;20802;-79
2022/12/03 19:15:40;;;;;;;51.53;15.00;;;;;;;;;;10427699;28;20218;-79
2022/12/03 19:20:41;;;;;;;51.30;16.27;;;;;;;;;;10429832;28;20265;-79
2022/12/03 19:25:53;;;;;;;38.17;13.40;;;;;;;;;;10418781;28;20632;-80
2022/12/03 19:30:57;;;;;;;48.70;14.80;;;;;;;;;;10436423;28;20211;-80
2022/12/03 19:35:59;;;;;;;42.60;13.80;;;;;;;;;;10398672;28;20336;-80
2022/12/03 19:41:00;;;;;;;59.03;14.60;;;;;;;;;;10421214;28;20349;-80
2022/12/03 19:46:02;;;;;;;45.53;13.30;;;;;;;;;;10422664;28;20218;-79
2022/12/03 19:51:05;;;;;;;45.20;14.00;;;;;;;;;;10424614;28;20276;-79
2022/12/03 19:56:11;;;;;;;48.80;14.02;;;;;;;;;;10406998;28;20247;-79
2022/12/03 20:01:16;;;;;;;42.75;13.38;;;;;;;;;;10418408;28;20222;-80
2022/12/03 20:06:18;;;;;;;49.90;14.10;;;;;;;;;;10409276;28;20207;-80
2022/12/03 20:11:21;;;;;;;47.10;14.13;;;;;;;;;;10392393;28;20322;-80
2022/12/03 20:16:23;;;;;;;38.40;12.90;;;;;;;;;;10421792;28;20218;-80
2022/12/03 20:21:24;;;;;;;45.07;13.70;;;;;;;;;;10413695;28;20241;-79
2022/12/03 20:26:25;;;;;;;42.17;12.73;;;;;;;;;;10405659;28;20302;-80
2022/12/03 20:31:27;;;;;;;43.15;12.38;;;;;;;;;;10417208;28;20215;-80
2022/12/03 20:36:29;;;;;;;50.60;14.03;;;;;;;;;;10385553;28;20279;-81
2022/12/03 20:41:30;;;;;;;39.73;13.03;;;;;;;;;;10394815;28;20234;-80
2022/12/03 20:46:31;;;;;;;39.85;13.32;;;;;;;;;;10375807;28;20573;-80
2022/12/03 20:51:32;;;;;;;54.20;15.23;;;;;;;;;;10386850;28;20368;-80
2022/12/03 20:56:35;;;;;;;55.47;14.45;;;;;;;;;;10388076;28;20211;-79
2022/12/03 21:01:37;;;;;;;44.10;12.85;;;;;;;;;;10382368;28;20213;-80
2022/12/03 21:06:41;;;;;;;44.70;13.52;;;;;;;;;;10377366;28;20250;-81
2022/12/03 21:11:42;;;;;;;35.55;13.73;;;;;;;;;;10384119;28;20696;-78
2022/12/03 21:16:47;;;;;;;40.23;13.87;;;;;;;;;;10377971;28;20252;-79
2022/12/03 21:21:48;;;;;;;46.70;14.43;;;;;;;;;;10381352;28;20308;-80
2022/12/03 21:26:50;;;;;;;43.80;13.73;;;;;;;;;;10389424;28;20210;-80
2022/12/03 21:31:51;;;;;;;44.43;14.43;;;;;;;;;;10382883;28;20212;-80
2022/12/03 21:36:52;;;;;;;41.88;14.60;;;;;;;;;;10395689;28;20218;-80
2022/12/03 21:41:53;;;;;;;41.35;13.48;;;;;;;;;;10424481;28;20265;-79
2022/12/03 21:46:54;;;;;;;45.60;13.50;;;;;;;;;;10427232;28;20214;-80
2022/12/03 21:51:55;;;;;;;44.40;13.60;;;;;;;;;;10430513;28;20305;-79
2022/12/03 21:56:56;;;;;;;46.17;13.48;;;;;;;;;;10431242;28;20221;-80
2022/12/03 22:01:57;;;;;;;43.08;13.43;;;;;;;;;;10423063;28;20268;-80
2022/12/03 22:06:58;;;;;;;39.70;13.97;;;;;;;;;;10440661;28;20213;-80
2022/12/03 22:12:00;;;;;;;33.60;12.90;;;;;;;;;;10429972;28;20229;-80
2022/12/03 22:17:01;;;;;;;50.77;14.43;;;;;;;;;;10424636;28;20211;-79
2022/12/03 22:22:02;;;;;;;50.67;14.75;;;;;;;;;;10427907;28;20615;-80
2022/12/03 22:27:03;;;;;;;38.37;13.13;;;;;;;;;;10421066;28;20207;-81
2022/12/03 22:32:04;;;;;;;48.00;15.23;;;;;;;;;;10426195;28;20208;-80
2022/12/03 22:37:06;;;;;;;34.50;13.20;;;;;;;;;;10392895;28;20212;-80
2022/12/03 22:42:07;;;;;;;35.13;13.68;;;;;;;;;;10415006;28;20308;-81
2022/12/03 22:47:08;;;;;;;43.53;14.97;;;;;;;;;;10429417;28;20790;-79
2022/12/03 22:52:09;;;;;;;49.83;14.75;;;;;;;;;;10404948;28;20251;-80
2022/12/03 22:57:10;;;;;;;44.08;13.68;;;;;;;;;;10452726;28;20218;-80
2022/12/03 23:02:11;;;;;;;47.75;13.10;;;;;;;;;;10476538;28;20412;-81
2022/12/03 23:07:12;;;;;;;43.53;13.57;;;;;;;;;;10413159;28;20370;-81
2022/12/03 23:12:13;;;;;;;40.23;14.27;;;;;;;;;;10434640;28;20215;-81
2022/12/03 23:17:14;;;;;;;45.50;15.47;;;;;;;;;;10422143;28;20216;-79
2022/12/03 23:22:15;;;;;;;42.10;15.93;;;;;;;;;;10433352;28;20250;-82
2022/12/03 23:27:16;;;;;;;40.90;14.30;;;;;;;;;;10434898;28;20207;-79
2022/12/03 23:32:17;;;;;;;49.50;15.47;;;;;;;;;;10402967;28;20230;-79
2022/12/03 23:37:19;;;;;;;45.43;15.70;;;;;;;;;;10409803;28;20230;-79
2022/12/03 23:42:20;;;;;;;41.47;14.85;;;;;;;;;;10416502;28;20283;-82
2022/12/03 23:47:21;;;;;;;49.35;16.02;;;;;;;;;;10413967;28;20210;-81
2022/12/03 23:52:22;;;;;;;47.70;15.05;;;;;;;;;;10389122;28;20234;-81
2022/12/03 23:57:23;;;;;;;42.50;16.20;;;;;;;;;;10409404;28;20238;-81
